sensor_id;sensor_type;location;lat;lon;timestamp;temperature;humidity
10276;DHT22;5183;51.190;6.820;2022-08-11T00:02:21;21.50;1.00
10276;DHT22;5183;51.190;6.820;2022-08-11T00:04:51;21.50;1.00
10276;DHT22;5183;51.190;6.820;2022-08-11T00:07:20;21.50;1.00
10276;DHT22;5183;51.190;6.820;2022-08-11T00:09:48;21.40;1.00
10276;DHT22;5183;51.190;6.820;2022-08-11T00:12:15;21.30;1.00
10276;DHT22;5183;51.190;6.820;2022-08-11T00:14:43;21.30;1.00
10276;DHT22;5183;51.190;6.820;2022-08-11T00:17:13;21.30;1.00
10276;DHT22;5183;51.190;6.820;2022-08-11T00:19:44;21.30;1.00
10276;DHT22;5183;51.190;6.820;2022-08-11T00:22:19;21.20;1.00
10276;DHT22;5183;51.190;6.820;2022-08-11T00:24:47;21.10;1.00
10276;DHT22;5183;51.190;6.820;2022-08-11T00:27:15;21.10;1.00
10276;DHT22;5183;51.190;6.820;2022-08-11T00:29:51;21.10;1.00
10276;DHT22;5183;51.190;6.820;2022-08-11T00:32:19;21.10;1.00
10276;DHT22;5183;51.190;6.820;2022-08-11T00:34:46;21.00;1.00
10276;DHT22;5183;51.190;6.820;2022-08-11T00:37:19;21.00;1.00
10276;DHT22;5183;51.190;6.820;2022-08-11T00:39:50;20.90;1.00
10276;DHT22;5183;51.190;6.820;2022-08-11T00:42:26;20.80;1.00
10276;DHT22;5183;51.190;6.820;2022-08-11T00:45:01;20.80;1.00
10276;DHT22;5183;51.190;6.820;2022-08-11T00:47:47;20.80;1.00
10276;DHT22;5183;51.190;6.820;2022-08-11T00:50:21;20.70;1.00
10276;DHT22;5183;51.190;6.820;2022-08-11T00:53:02;20.60;1.00
10276;DHT22;5183;51.190;6.820;2022-08-11T01:05:03;20.50;1.00
10276;DHT22;5183;51.190;6.820;2022-08-11T01:07:48;20.40;1.00
10276;DHT22;5183;51.190;6.820;2022-08-11T01:10:47;20.40;1.00
10276;DHT22;5183;51.190;6.820;2022-08-11T01:13:42;20.40;1.00
10276;DHT22;5183;51.190;6.820;2022-08-11T01:16:38;20.30;1.00
10276;DHT22;5183;51.190;6.820;2022-08-11T01:19:45;20.30;1.00
10276;DHT22;5183;51.190;6.820;2022-08-11T01:22:51;20.20;1.00
10276;DHT22;5183;51.190;6.820;2022-08-11T01:25:55;20.20;1.00
10276;DHT22;5183;51.190;6.820;2022-08-11T01:28:45;20.10;1.00
10276;DHT22;5183;51.190;6.820;2022-08-11T01:31:38;20.10;1.00
10276;DHT22;5183;51.190;6.820;2022-08-11T01:35:02;20.10;1.00
10276;DHT22;5183;51.190;6.820;2022-08-11T01:38:06;20.00;1.00
10276;DHT22;5183;51.190;6.820;2022-08-11T01:40:55;19.90;1.00
10276;DHT22;5183;51.190;6.820;2022-08-11T01:46:56;19.90;1.00
10276;DHT22;5183;51.190;6.820;2022-08-11T01:49:42;19.80;1.00
10276;DHT22;5183;51.190;6.820;2022-08-11T01:52:19;19.80;1.00
10276;DHT22;5183;51.190;6.820;2022-08-11T01:54:58;19.80;1.00
10276;DHT22;5183;51.190;6.820;2022-08-11T01:57:33;19.70;1.00
10276;DHT22;5183;51.190;6.820;2022-08-11T02:00:06;19.70;1.00
10276;DHT22;5183;51.190;6.820;2022-08-11T02:02:40;19.70;1.00
10276;DHT22;5183;51.190;6.820;2022-08-11T02:05:56;19.70;1.00
10276;DHT22;5183;51.190;6.820;2022-08-11T02:08:37;19.60;1.00
10276;DHT22;5183;51.190;6.820;2022-08-11T02:11:17;19.60;1.00
10276;DHT22;5183;51.190;6.820;2022-08-11T02:14:12;19.50;1.00
10276;DHT22;5183;51.190;6.820;2022-08-11T02:16:55;19.50;1.00
10276;DHT22;5183;51.190;6.820;2022-08-11T02:19:38;19.50;1.00
10276;DHT22;5183;51.190;6.820;2022-08-11T02:22:31;19.50;1.00
10276;DHT22;5183;51.190;6.820;2022-08-11T02:25:29;19.50;1.00
10276;DHT22;5183;51.190;6.820;2022-08-11T02:28:09;19.40;1.00
10276;DHT22;5183;51.190;6.820;2022-08-11T02:30:45;19.40;1.00
10276;DHT22;5183;51.190;6.820;2022-08-11T02:33:34;19.40;1.00
10276;DHT22;5183;51.190;6.820;2022-08-11T02:36:05;19.30;1.00
10276;DHT22;5183;51.190;6.820;2022-08-11T02:38:39;19.30;1.00
10276;DHT22;5183;51.190;6.820;2022-08-11T02:41:12;19.30;1.00
10276;DHT22;5183;51.190;6.820;2022-08-11T02:44:09;19.30;1.00
10276;DHT22;5183;51.190;6.820;2022-08-11T02:46:50;19.30;1.00
10276;DHT22;5183;51.190;6.820;2022-08-11T02:49:32;19.20;1.00
10276;DHT22;5183;51.190;6.820;2022-08-11T02:52:29;19.20;1.00
10276;DHT22;5183;51.190;6.820;2022-08-11T02:55:13;19.20;1.00
10276;DHT22;5183;51.190;6.820;2022-08-11T02:57:50;19.10;1.00
10276;DHT22;5183;51.190;6.820;2022-08-11T03:00:19;19.10;1.00
10276;DHT22;5183;51.190;6.820;2022-08-11T03:02:55;19.10;1.00
10276;DHT22;5183;51.190;6.820;2022-08-11T03:05:32;19.00;1.00
10276;DHT22;5183;51.190;6.820;2022-08-11T03:08:12;19.00;1.00
10276;DHT22;5183;51.190;6.820;2022-08-11T03:10:50;18.90;1.00
10276;DHT22;5183;51.190;6.820;2022-08-11T03:13:38;18.90;1.00
10276;DHT22;5183;51.190;6.820;2022-08-11T03:16:30;18.90;1.00
10276;DHT22;5183;51.190;6.820;2022-08-11T03:19:15;18.80;1.00
10276;DHT22;5183;51.190;6.820;2022-08-11T03:21:46;18.90;1.00
10276;DHT22;5183;51.190;6.820;2022-08-11T03:24:21;18.90;1.00
10276;DHT22;5183;51.190;6.820;2022-08-11T03:26:58;18.90;1.00
10276;DHT22;5183;51.190;6.820;2022-08-11T03:29:34;18.90;1.00
10276;DHT22;5183;51.190;6.820;2022-08-11T03:32:06;18.90;1.00
10276;DHT22;5183;51.190;6.820;2022-08-11T03:34:38;18.90;1.00
10276;DHT22;5183;51.190;6.820;2022-08-11T03:37:21;18.80;1.00
10276;DHT22;5183;51.190;6.820;2022-08-11T03:40:19;18.80;1.00
10276;DHT22;5183;51.190;6.820;2022-08-11T03:43:12;18.70;1.00
10276;DHT22;5183;51.190;6.820;2022-08-11T03:45:54;18.80;1.00
10276;DHT22;5183;51.190;6.820;2022-08-11T03:48:28;18.70;1.00
10276;DHT22;5183;51.190;6.820;2022-08-11T03:51:12;18.60;1.00
10276;DHT22;5183;51.190;6.820;2022-08-11T04:00:10;18.60;1.00
10276;DHT22;5183;51.190;6.820;2022-08-11T04:03:10;18.60;1.00
10276;DHT22;5183;51.190;6.820;2022-08-11T04:09:32;18.50;1.00
10276;DHT22;5183;51.190;6.820;2022-08-11T04:15:51;18.40;1.00
10276;DHT22;5183;51.190;6.820;2022-08-11T04:19:04;18.40;1.00
10276;DHT22;5183;51.190;6.820;2022-08-11T04:28:19;18.30;1.00
10276;DHT22;5183;51.190;6.820;2022-08-11T04:31:06;18.30;1.00
10276;DHT22;5183;51.190;6.820;2022-08-11T04:33:57;18.30;1.00
10276;DHT22;5183;51.190;6.820;2022-08-11T04:40:25;18.30;1.00
10276;DHT22;5183;51.190;6.820;2022-08-11T04:46:52;18.30;1.00
10276;DHT22;5183;51.190;6.820;2022-08-11T04:49:57;18.30;1.00
10276;DHT22;5183;51.190;6.820;2022-08-11T04:56:08;18.40;1.00
10276;DHT22;5183;51.190;6.820;2022-08-11T05:03:02;18.50;1.00
10276;DHT22;5183;51.190;6.820;2022-08-11T05:05:55;18.50;1.00
10276;DHT22;5183;51.190;6.820;2022-08-11T05:08:52;18.60;1.00
10276;DHT22;5183;51.190;6.820;2022-08-11T05:11:45;18.60;1.00
10276;DHT22;5183;51.190;6.820;2022-08-11T05:14:28;18.70;1.00
10276;DHT22;5183;51.190;6.820;2022-08-11T05:17:15;18.70;1.00
10276;DHT22;5183;51.190;6.820;2022-08-11T05:20:08;18.80;1.00
10276;DHT22;5183;51.190;6.820;2022-08-11T05:22:53;18.80;1.00
10276;DHT22;5183;51.190;6.820;2022-08-11T05:25:43;18.80;1.00
10276;DHT22;5183;51.190;6.820;2022-08-11T05:28:32;18.90;1.00
10276;DHT22;5183;51.190;6.820;2022-08-11T05:31:19;19.00;1.00
10276;DHT22;5183;51.190;6.820;2022-08-11T05:34:09;19.00;1.00
10276;DHT22;5183;51.190;6.820;2022-08-11T05:36:59;19.00;1.00
10276;DHT22;5183;51.190;6.820;2022-08-11T05:39:30;19.10;1.00
10276;DHT22;5183;51.190;6.820;2022-08-11T05:42:21;19.10;1.00
10276;DHT22;5183;51.190;6.820;2022-08-11T05:45:11;19.20;1.00
10276;DHT22;5183;51.190;6.820;2022-08-11T05:47:57;19.30;1.00
10276;DHT22;5183;51.190;6.820;2022-08-11T05:50:43;19.30;1.00
10276;DHT22;5183;51.190;6.820;2022-08-11T05:53:34;19.40;1.00
10276;DHT22;5183;51.190;6.820;2022-08-11T05:56:18;19.50;1.00
10276;DHT22;5183;51.190;6.820;2022-08-11T05:58:49;19.50;1.00
10276;DHT22;5183;51.190;6.820;2022-08-11T06:01:21;19.50;1.00
10276;DHT22;5183;51.190;6.820;2022-08-11T06:03:50;19.60;1.00
10276;DHT22;5183;51.190;6.820;2022-08-11T06:06:35;19.60;1.00
10276;DHT22;5183;51.190;6.820;2022-08-11T06:09:05;19.70;1.00
10276;DHT22;5183;51.190;6.820;2022-08-11T06:11:36;19.70;1.00
10276;DHT22;5183;51.190;6.820;2022-08-11T06:14:06;19.80;1.00
10276;DHT22;5183;51.190;6.820;2022-08-11T06:16:35;19.90;1.00
10276;DHT22;5183;51.190;6.820;2022-08-11T06:19:03;20.00;1.00
10276;DHT22;5183;51.190;6.820;2022-08-11T06:21:32;20.10;1.00
10276;DHT22;5183;51.190;6.820;2022-08-11T06:24:03;20.10;1.00
10276;DHT22;5183;51.190;6.820;2022-08-11T06:26:32;20.20;1.00
10276;DHT22;5183;51.190;6.820;2022-08-11T06:28:59;20.30;1.00
10276;DHT22;5183;51.190;6.820;2022-08-11T06:31:29;20.40;1.00
10276;DHT22;5183;51.190;6.820;2022-08-11T06:34:08;20.50;1.00
10276;DHT22;5183;51.190;6.820;2022-08-11T06:36:40;20.50;1.00
10276;DHT22;5183;51.190;6.820;2022-08-11T06:39:16;20.60;1.00
10276;DHT22;5183;51.190;6.820;2022-08-11T06:41:50;20.60;1.00
10276;DHT22;5183;51.190;6.820;2022-08-11T06:44:24;20.70;1.00
10276;DHT22;5183;51.190;6.820;2022-08-11T06:46:55;20.80;1.00
10276;DHT22;5183;51.190;6.820;2022-08-11T06:49:36;20.80;1.00
10276;DHT22;5183;51.190;6.820;2022-08-11T06:52:28;20.90;1.00
10276;DHT22;5183;51.190;6.820;2022-08-11T06:54:59;20.90;1.00
10276;DHT22;5183;51.190;6.820;2022-08-11T06:57:32;21.00;1.00
10276;DHT22;5183;51.190;6.820;2022-08-11T07:00:18;21.10;1.00
10276;DHT22;5183;51.190;6.820;2022-08-11T07:02:58;21.10;1.00
10276;DHT22;5183;51.190;6.820;2022-08-11T07:05:31;21.20;1.00
10276;DHT22;5183;51.190;6.820;2022-08-11T07:08:35;21.20;1.00
10276;DHT22;5183;51.190;6.820;2022-08-11T07:11:54;21.40;1.00
10276;DHT22;5183;51.190;6.820;2022-08-11T07:14:48;21.50;1.00
10276;DHT22;5183;51.190;6.820;2022-08-11T07:17:37;21.60;1.00
10276;DHT22;5183;51.190;6.820;2022-08-11T07:20:10;21.80;1.00
10276;DHT22;5183;51.190;6.820;2022-08-11T07:22:58;21.80;1.00
10276;DHT22;5183;51.190;6.820;2022-08-11T07:25:49;22.00;1.00
10276;DHT22;5183;51.190;6.820;2022-08-11T07:28:38;22.10;1.00
10276;DHT22;5183;51.190;6.820;2022-08-11T07:31:29;22.20;1.00
10276;DHT22;5183;51.190;6.820;2022-08-11T07:34:09;22.30;1.00
10276;DHT22;5183;51.190;6.820;2022-08-11T07:36:44;22.50;1.00
10276;DHT22;5183;51.190;6.820;2022-08-11T07:39:15;22.60;1.00
10276;DHT22;5183;51.190;6.820;2022-08-11T07:41:46;22.70;1.00
10276;DHT22;5183;51.190;6.820;2022-08-11T07:44:14;22.70;1.00
10276;DHT22;5183;51.190;6.820;2022-08-11T07:46:43;22.80;1.00
10276;DHT22;5183;51.190;6.820;2022-08-11T07:49:30;22.90;1.00
10276;DHT22;5183;51.190;6.820;2022-08-11T07:52:17;23.00;1.00
10276;DHT22;5183;51.190;6.820;2022-08-11T07:54:59;23.10;1.00
10276;DHT22;5183;51.190;6.820;2022-08-11T07:57:29;23.20;1.00
10276;DHT22;5183;51.190;6.820;2022-08-11T08:00:14;23.20;1.00
10276;DHT22;5183;51.190;6.820;2022-08-11T08:02:59;23.20;1.00
10276;DHT22;5183;51.190;6.820;2022-08-11T08:05:45;23.30;1.00
10276;DHT22;5183;51.190;6.820;2022-08-11T08:08:32;23.30;1.00
10276;DHT22;5183;51.190;6.820;2022-08-11T08:11:18;23.50;1.00
10276;DHT22;5183;51.190;6.820;2022-08-11T08:14:04;23.60;1.00
10276;DHT22;5183;51.190;6.820;2022-08-11T08:16:48;23.60;1.00
10276;DHT22;5183;51.190;6.820;2022-08-11T08:19:34;23.70;1.00
10276;DHT22;5183;51.190;6.820;2022-08-11T08:22:01;23.70;1.00
10276;DHT22;5183;51.190;6.820;2022-08-11T08:24:30;23.80;1.00
10276;DHT22;5183;51.190;6.820;2022-08-11T08:26:58;23.90;1.00
10276;DHT22;5183;51.190;6.820;2022-08-11T08:29:27;24.00;1.00
10276;DHT22;5183;51.190;6.820;2022-08-11T08:32:12;24.10;1.00
10276;DHT22;5183;51.190;6.820;2022-08-11T08:34:41;24.20;1.00
10276;DHT22;5183;51.190;6.820;2022-08-11T08:37:09;24.30;1.00
10276;DHT22;5183;51.190;6.820;2022-08-11T08:39:37;24.40;1.00
10276;DHT22;5183;51.190;6.820;2022-08-11T08:42:08;24.50;1.00
10276;DHT22;5183;51.190;6.820;2022-08-11T08:44:41;24.70;1.00
10276;DHT22;5183;51.190;6.820;2022-08-11T08:47:12;24.80;1.00
10276;DHT22;5183;51.190;6.820;2022-08-11T08:49:44;24.90;1.00
10276;DHT22;5183;51.190;6.820;2022-08-11T08:52:17;25.00;1.00
10276;DHT22;5183;51.190;6.820;2022-08-11T08:54:50;25.10;1.00
10276;DHT22;5183;51.190;6.820;2022-08-11T08:57:20;25.20;1.00
10276;DHT22;5183;51.190;6.820;2022-08-11T08:59:50;25.20;1.00
10276;DHT22;5183;51.190;6.820;2022-08-11T09:02:19;25.30;1.00
10276;DHT22;5183;51.190;6.820;2022-08-11T09:04:50;25.30;1.00
10276;DHT22;5183;51.190;6.820;2022-08-11T09:07:19;25.40;1.00
10276;DHT22;5183;51.190;6.820;2022-08-11T09:09:51;25.50;1.00
10276;DHT22;5183;51.190;6.820;2022-08-11T09:12:20;25.70;1.00
10276;DHT22;5183;51.190;6.820;2022-08-11T09:14:48;25.80;1.00
10276;DHT22;5183;51.190;6.820;2022-08-11T09:17:30;26.00;1.00
10276;DHT22;5183;51.190;6.820;2022-08-11T09:20:01;26.10;1.00
10276;DHT22;5183;51.190;6.820;2022-08-11T09:22:30;26.20;1.00
10276;DHT22;5183;51.190;6.820;2022-08-11T09:25:17;26.30;1.00
10276;DHT22;5183;51.190;6.820;2022-08-11T09:28:03;26.40;1.00
10276;DHT22;5183;51.190;6.820;2022-08-11T09:30:31;26.50;1.00
10276;DHT22;5183;51.190;6.820;2022-08-11T09:33:00;26.50;1.00
10276;DHT22;5183;51.190;6.820;2022-08-11T09:35:32;26.70;1.00
10276;DHT22;5183;51.190;6.820;2022-08-11T09:38:03;26.80;1.00
10276;DHT22;5183;51.190;6.820;2022-08-11T09:40:50;27.00;1.00
10276;DHT22;5183;51.190;6.820;2022-08-11T09:43:18;27.10;1.00
10276;DHT22;5183;51.190;6.820;2022-08-11T09:46:04;27.10;1.00
10276;DHT22;5183;51.190;6.820;2022-08-11T09:48:37;27.20;1.00
10276;DHT22;5183;51.190;6.820;2022-08-11T09:51:05;27.40;1.00
10276;DHT22;5183;51.190;6.820;2022-08-11T09:53:37;27.60;1.00
10276;DHT22;5183;51.190;6.820;2022-08-11T09:56:09;27.80;1.00
10276;DHT22;5183;51.190;6.820;2022-08-11T09:58:57;27.90;1.00
10276;DHT22;5183;51.190;6.820;2022-08-11T10:01:28;28.10;1.00
10276;DHT22;5183;51.190;6.820;2022-08-11T10:03:59;28.20;1.00
10276;DHT22;5183;51.190;6.820;2022-08-11T10:06:27;28.20;1.00
10276;DHT22;5183;51.190;6.820;2022-08-11T10:09:15;28.30;1.00
10276;DHT22;5183;51.190;6.820;2022-08-11T10:11:45;28.40;1.00
10276;DHT22;5183;51.190;6.820;2022-08-11T10:14:13;28.50;1.00
10276;DHT22;5183;51.190;6.820;2022-08-11T10:17:00;28.60;1.00
10276;DHT22;5183;51.190;6.820;2022-08-11T10:19:31;28.70;1.00
10276;DHT22;5183;51.190;6.820;2022-08-11T10:21:59;28.80;1.00
10276;DHT22;5183;51.190;6.820;2022-08-11T10:24:44;28.80;1.00
10276;DHT22;5183;51.190;6.820;2022-08-11T10:27:29;28.90;1.00
10276;DHT22;5183;51.190;6.820;2022-08-11T10:29:58;29.00;1.00
10276;DHT22;5183;51.190;6.820;2022-08-11T10:32:43;29.20;1.00
10276;DHT22;5183;51.190;6.820;2022-08-11T10:35:30;29.20;1.00
10276;DHT22;5183;51.190;6.820;2022-08-11T10:37:58;29.30;1.00
10276;DHT22;5183;51.190;6.820;2022-08-11T10:40:26;29.40;1.00
10276;DHT22;5183;51.190;6.820;2022-08-11T10:42:58;29.50;1.00
10276;DHT22;5183;51.190;6.820;2022-08-11T10:45:28;29.60;1.00
10276;DHT22;5183;51.190;6.820;2022-08-11T10:48:14;29.70;1.00
10276;DHT22;5183;51.190;6.820;2022-08-11T10:50:44;29.80;1.00
10276;DHT22;5183;51.190;6.820;2022-08-11T10:53:29;29.90;1.00
10276;DHT22;5183;51.190;6.820;2022-08-11T10:56:14;29.90;1.00
10276;DHT22;5183;51.190;6.820;2022-08-11T10:59:00;30.10;1.00
10276;DHT22;5183;51.190;6.820;2022-08-11T11:01:31;30.30;1.00
10276;DHT22;5183;51.190;6.820;2022-08-11T11:04:00;30.40;1.00
10276;DHT22;5183;51.190;6.820;2022-08-11T11:06:34;30.50;1.00
10276;DHT22;5183;51.190;6.820;2022-08-11T11:09:15;30.50;1.00
10276;DHT22;5183;51.190;6.820;2022-08-11T11:11:46;30.50;1.00
10276;DHT22;5183;51.190;6.820;2022-08-11T11:14:34;30.60;1.00
10276;DHT22;5183;51.190;6.820;2022-08-11T11:17:25;30.70;1.00
10276;DHT22;5183;51.190;6.820;2022-08-11T11:20:13;31.00;1.00
10276;DHT22;5183;51.190;6.820;2022-08-11T11:22:43;31.00;1.00
10276;DHT22;5183;51.190;6.820;2022-08-11T11:25:20;31.20;1.00
10276;DHT22;5183;51.190;6.820;2022-08-11T11:28:02;31.30;1.00
10276;DHT22;5183;51.190;6.820;2022-08-11T11:30:44;31.30;1.00
10276;DHT22;5183;51.190;6.820;2022-08-11T11:33:18;31.20;1.00
10276;DHT22;5183;51.190;6.820;2022-08-11T11:36:00;31.30;1.00
10276;DHT22;5183;51.190;6.820;2022-08-11T11:38:34;31.40;1.00
10276;DHT22;5183;51.190;6.820;2022-08-11T11:41:01;31.40;1.00
10276;DHT22;5183;51.190;6.820;2022-08-11T11:43:45;31.60;1.00
10276;DHT22;5183;51.190;6.820;2022-08-11T11:46:14;31.70;1.00
10276;DHT22;5183;51.190;6.820;2022-08-11T11:48:42;31.90;1.00
10276;DHT22;5183;51.190;6.820;2022-08-11T11:51:09;32.00;1.00
10276;DHT22;5183;51.190;6.820;2022-08-11T11:53:39;31.90;1.00
10276;DHT22;5183;51.190;6.820;2022-08-11T11:56:08;31.90;1.00
10276;DHT22;5183;51.190;6.820;2022-08-11T11:58:37;32.00;1.00
10276;DHT22;5183;51.190;6.820;2022-08-11T12:01:24;32.10;1.00
10276;DHT22;5183;51.190;6.820;2022-08-11T12:03:52;32.20;1.00
10276;DHT22;5183;51.190;6.820;2022-08-11T12:06:22;32.20;1.00
10276;DHT22;5183;51.190;6.820;2022-08-11T12:08:52;32.20;1.00
10276;DHT22;5183;51.190;6.820;2022-08-11T12:11:20;32.30;1.00
10276;DHT22;5183;51.190;6.820;2022-08-11T12:14:07;32.40;1.00
10276;DHT22;5183;51.190;6.820;2022-08-11T12:16:38;32.50;1.00
10276;DHT22;5183;51.190;6.820;2022-08-11T12:19:06;32.60;1.00
10276;DHT22;5183;51.190;6.820;2022-08-11T12:21:35;32.80;1.00
10276;DHT22;5183;51.190;6.820;2022-08-11T12:24:04;33.00;1.00
10276;DHT22;5183;51.190;6.820;2022-08-11T12:27:00;33.20;1.00
10276;DHT22;5183;51.190;6.820;2022-08-11T12:29:46;33.40;1.00
10276;DHT22;5183;51.190;6.820;2022-08-11T12:32:15;33.50;1.00
10276;DHT22;5183;51.190;6.820;2022-08-11T12:34:43;33.50;1.00
10276;DHT22;5183;51.190;6.820;2022-08-11T12:37:10;33.70;1.00
10276;DHT22;5183;51.190;6.820;2022-08-11T12:39:41;33.70;1.00
10276;DHT22;5183;51.190;6.820;2022-08-11T12:42:30;33.70;1.00
10276;DHT22;5183;51.190;6.820;2022-08-11T12:45:16;33.80;1.00
10276;DHT22;5183;51.190;6.820;2022-08-11T12:48:11;33.90;1.00
10276;DHT22;5183;51.190;6.820;2022-08-11T12:51:00;33.90;1.00
10276;DHT22;5183;51.190;6.820;2022-08-11T12:53:53;33.90;1.00
10276;DHT22;5183;51.190;6.820;2022-08-11T12:56:23;34.10;1.00
10276;DHT22;5183;51.190;6.820;2022-08-11T12:59:10;34.10;1.00
10276;DHT22;5183;51.190;6.820;2022-08-11T13:01:55;34.20;1.00
10276;DHT22;5183;51.190;6.820;2022-08-11T13:04:41;34.00;1.00
10276;DHT22;5183;51.190;6.820;2022-08-11T13:07:21;33.90;1.00
10276;DHT22;5183;51.190;6.820;2022-08-11T13:09:50;33.90;1.00
10276;DHT22;5183;51.190;6.820;2022-08-11T13:12:18;33.80;1.00
10276;DHT22;5183;51.190;6.820;2022-08-11T13:15:03;33.70;1.00
10276;DHT22;5183;51.190;6.820;2022-08-11T13:17:30;33.90;1.00
10276;DHT22;5183;51.190;6.820;2022-08-11T13:20:00;34.00;1.00
10276;DHT22;5183;51.190;6.820;2022-08-11T13:22:29;34.30;1.00
10276;DHT22;5183;51.190;6.820;2022-08-11T13:24:56;34.40;1.00
10276;DHT22;5183;51.190;6.820;2022-08-11T13:27:24;34.70;1.00
10276;DHT22;5183;51.190;6.820;2022-08-11T13:29:52;34.90;1.00
10276;DHT22;5183;51.190;6.820;2022-08-11T13:32:41;34.90;1.00
10276;DHT22;5183;51.190;6.820;2022-08-11T13:35:12;35.00;1.00
10276;DHT22;5183;51.190;6.820;2022-08-11T13:37:43;34.90;1.00
10276;DHT22;5183;51.190;6.820;2022-08-11T13:40:12;34.60;1.00
10276;DHT22;5183;51.190;6.820;2022-08-11T13:42:40;34.70;1.00
10276;DHT22;5183;51.190;6.820;2022-08-11T13:45:08;34.90;1.00
10276;DHT22;5183;51.190;6.820;2022-08-11T13:47:36;34.80;1.00
10276;DHT22;5183;51.190;6.820;2022-08-11T13:50:04;35.00;1.00
10276;DHT22;5183;51.190;6.820;2022-08-11T13:52:33;35.10;1.00
10276;DHT22;5183;51.190;6.820;2022-08-11T13:55:05;35.30;1.00
10276;DHT22;5183;51.190;6.820;2022-08-11T13:57:33;35.40;1.00
10276;DHT22;5183;51.190;6.820;2022-08-11T14:00:03;35.50;1.00
10276;DHT22;5183;51.190;6.820;2022-08-11T14:02:39;35.70;1.00
10276;DHT22;5183;51.190;6.820;2022-08-11T14:05:11;35.90;1.00
10276;DHT22;5183;51.190;6.820;2022-08-11T14:07:47;36.00;1.00
10276;DHT22;5183;51.190;6.820;2022-08-11T14:10:16;35.90;1.00
10276;DHT22;5183;51.190;6.820;2022-08-11T14:12:49;35.90;1.00
10276;DHT22;5183;51.190;6.820;2022-08-11T14:15:36;35.90;1.00
10276;DHT22;5183;51.190;6.820;2022-08-11T14:18:10;35.80;1.00
10276;DHT22;5183;51.190;6.820;2022-08-11T14:20:41;36.00;1.00
10276;DHT22;5183;51.190;6.820;2022-08-11T14:23:30;36.20;1.00
10276;DHT22;5183;51.190;6.820;2022-08-11T14:25:58;36.50;1.00
10276;DHT22;5183;51.190;6.820;2022-08-11T14:28:44;36.50;1.00
10276;DHT22;5183;51.190;6.820;2022-08-11T14:31:12;36.70;1.00
10276;DHT22;5183;51.190;6.820;2022-08-11T14:33:40;36.90;1.00
10276;DHT22;5183;51.190;6.820;2022-08-11T14:36:09;37.00;1.00
10276;DHT22;5183;51.190;6.820;2022-08-11T14:38:38;37.30;1.00
10276;DHT22;5183;51.190;6.820;2022-08-11T14:41:06;37.30;1.00
10276;DHT22;5183;51.190;6.820;2022-08-11T14:43:52;37.30;1.00
10276;DHT22;5183;51.190;6.820;2022-08-11T14:46:38;37.40;1.00
10276;DHT22;5183;51.190;6.820;2022-08-11T14:49:23;37.50;1.00
10276;DHT22;5183;51.190;6.820;2022-08-11T14:51:51;37.50;1.00
10276;DHT22;5183;51.190;6.820;2022-08-11T14:54:23;37.50;1.00
10276;DHT22;5183;51.190;6.820;2022-08-11T14:57:09;37.60;1.00
10276;DHT22;5183;51.190;6.820;2022-08-11T14:59:37;37.50;1.00
10276;DHT22;5183;51.190;6.820;2022-08-11T15:02:04;37.40;1.00
10276;DHT22;5183;51.190;6.820;2022-08-11T15:04:49;37.40;1.00
10276;DHT22;5183;51.190;6.820;2022-08-11T15:07:16;37.10;1.00
10276;DHT22;5183;51.190;6.820;2022-08-11T15:09:46;37.00;1.00
10276;DHT22;5183;51.190;6.820;2022-08-11T15:12:13;37.20;1.00
10276;DHT22;5183;51.190;6.820;2022-08-11T15:14:43;37.30;1.00
10276;DHT22;5183;51.190;6.820;2022-08-11T15:17:29;37.40;1.00
10276;DHT22;5183;51.190;6.820;2022-08-11T15:19:59;37.60;1.00
10276;DHT22;5183;51.190;6.820;2022-08-11T15:22:45;37.70;1.00
10276;DHT22;5183;51.190;6.820;2022-08-11T15:25:33;37.80;1.00
10276;DHT22;5183;51.190;6.820;2022-08-11T15:28:02;37.70;1.00
10276;DHT22;5183;51.190;6.820;2022-08-11T15:30:51;37.60;1.00
10276;DHT22;5183;51.190;6.820;2022-08-11T15:33:38;37.70;1.00
10276;DHT22;5183;51.190;6.820;2022-08-11T15:36:24;37.50;1.00
10276;DHT22;5183;51.190;6.820;2022-08-11T15:39:16;37.30;1.00
10276;DHT22;5183;51.190;6.820;2022-08-11T15:41:49;37.00;1.00
10276;DHT22;5183;51.190;6.820;2022-08-11T15:44:40;36.90;1.00
10276;DHT22;5183;51.190;6.820;2022-08-11T15:47:31;37.10;1.00
10276;DHT22;5183;51.190;6.820;2022-08-11T15:50:00;37.30;1.00
10276;DHT22;5183;51.190;6.820;2022-08-11T15:52:33;37.70;1.00
10276;DHT22;5183;51.190;6.820;2022-08-11T15:55:05;37.90;1.00
10276;DHT22;5183;51.190;6.820;2022-08-11T15:57:36;38.00;1.00
10276;DHT22;5183;51.190;6.820;2022-08-11T16:00:21;38.10;1.00
10276;DHT22;5183;51.190;6.820;2022-08-11T16:03:06;38.20;1.00
10276;DHT22;5183;51.190;6.820;2022-08-11T16:05:51;38.20;1.00
10276;DHT22;5183;51.190;6.820;2022-08-11T16:08:20;37.70;1.00
10276;DHT22;5183;51.190;6.820;2022-08-11T16:10:49;37.60;1.00
10276;DHT22;5183;51.190;6.820;2022-08-11T16:13:21;37.60;1.00
10276;DHT22;5183;51.190;6.820;2022-08-11T16:16:07;37.60;1.00
10276;DHT22;5183;51.190;6.820;2022-08-11T16:18:45;37.50;1.00
10276;DHT22;5183;51.190;6.820;2022-08-11T16:21:16;37.50;1.00
10276;DHT22;5183;51.190;6.820;2022-08-11T16:23:46;37.50;1.00
10276;DHT22;5183;51.190;6.820;2022-08-11T16:26:18;37.70;1.00
10276;DHT22;5183;51.190;6.820;2022-08-11T16:28:49;37.80;1.00
10276;DHT22;5183;51.190;6.820;2022-08-11T16:31:18;37.90;1.00
10276;DHT22;5183;51.190;6.820;2022-08-11T16:33:47;37.90;1.00
10276;DHT22;5183;51.190;6.820;2022-08-11T16:36:15;38.00;1.00
10276;DHT22;5183;51.190;6.820;2022-08-11T16:39:02;37.90;1.00
10276;DHT22;5183;51.190;6.820;2022-08-11T16:41:32;37.60;1.00
10276;DHT22;5183;51.190;6.820;2022-08-11T16:44:18;37.50;1.00
10276;DHT22;5183;51.190;6.820;2022-08-11T16:47:05;37.80;1.00
10276;DHT22;5183;51.190;6.820;2022-08-11T16:49:33;37.80;1.00
10276;DHT22;5183;51.190;6.820;2022-08-11T16:52:02;37.80;1.00
10276;DHT22;5183;51.190;6.820;2022-08-11T16:54:31;37.80;1.00
10276;DHT22;5183;51.190;6.820;2022-08-11T16:57:00;37.90;1.00
10276;DHT22;5183;51.190;6.820;2022-08-11T16:59:50;38.10;1.00
10276;DHT22;5183;51.190;6.820;2022-08-11T17:02:20;38.00;1.00
10276;DHT22;5183;51.190;6.820;2022-08-11T17:05:07;37.80;1.00
10276;DHT22;5183;51.190;6.820;2022-08-11T17:07:53;37.90;1.00
10276;DHT22;5183;51.190;6.820;2022-08-11T17:10:43;38.20;1.00
10276;DHT22;5183;51.190;6.820;2022-08-11T17:13:39;38.10;1.00
10276;DHT22;5183;51.190;6.820;2022-08-11T17:16:10;38.00;1.00
10276;DHT22;5183;51.190;6.820;2022-08-11T17:18:44;37.70;1.00
10276;DHT22;5183;51.190;6.820;2022-08-11T17:21:18;37.80;1.00
10276;DHT22;5183;51.190;6.820;2022-08-11T17:23:48;37.60;1.00
10276;DHT22;5183;51.190;6.820;2022-08-11T17:26:21;37.70;1.00
10276;DHT22;5183;51.190;6.820;2022-08-11T17:28:58;37.90;1.00
10276;DHT22;5183;51.190;6.820;2022-08-11T17:31:27;38.00;1.00
10276;DHT22;5183;51.190;6.820;2022-08-11T17:34:12;38.10;1.00
10276;DHT22;5183;51.190;6.820;2022-08-11T17:36:57;38.30;1.00
10276;DHT22;5183;51.190;6.820;2022-08-11T17:39:28;38.30;1.00
10276;DHT22;5183;51.190;6.820;2022-08-11T17:41:56;38.10;1.00
10276;DHT22;5183;51.190;6.820;2022-08-11T17:44:43;38.20;1.00
10276;DHT22;5183;51.190;6.820;2022-08-11T17:47:30;38.60;1.00
10276;DHT22;5183;51.190;6.820;2022-08-11T17:50:16;39.00;1.00
10276;DHT22;5183;51.190;6.820;2022-08-11T17:52:44;39.20;1.00
10276;DHT22;5183;51.190;6.820;2022-08-11T17:55:30;38.90;1.00
10276;DHT22;5183;51.190;6.820;2022-08-11T17:58:17;38.40;1.00
10276;DHT22;5183;51.190;6.820;2022-08-11T18:01:02;38.10;1.00
10276;DHT22;5183;51.190;6.820;2022-08-11T18:03:32;38.00;1.00